Time;durP1;ratioP1;P1;durP2;ratioP2;P2;SDS_P1;SDS_P2;PMS_P1;PMS_P2;Temp;Humidity;BMP_temperature;BMP_pressure;BME280_temperature;BME280_humidity;BME280_pressure;Samples;Min_cycle;Max_cycle;Signal;HPM_P1;HPM_P2
2022/08/01 00:00:40;;;;;;;2.53;1.73;;;26.20;56.80;;;;;;5013486;28;20053;-56
2022/08/01 00:03:06;;;;;;;2.38;1.48;;;26.20;56.80;;;;;;5013831;28;20398;-54
2022/08/01 00:05:32;;;;;;;2.20;1.80;;;26.10;56.70;;;;;;5013187;28;20029;-53
2022/08/01 00:07:58;;;;;;;3.22;1.80;;;26.10;56.70;;;;;;5012535;28;20033;-54
2022/08/01 00:10:24;;;;;;;2.38;1.92;;;26.20;56.80;;;;;;5014311;28;20022;-55
2022/08/01 00:12:50;;;;;;;3.50;1.75;;;26.20;56.80;;;;;;5015684;28;20444;-52
2022/08/01 00:15:17;;;;;;;1.95;1.50;;;26.10;56.70;;;;;;5013664;28;20404;-56
2022/08/01 00:17:43;;;;;;;2.95;2.22;;;26.10;56.70;;;;;;5014586;28;20068;-54
2022/08/01 00:20:11;;;;;;;2.90;2.10;;;26.10;56.70;;;;;;5012792;28;20041;-56
2022/08/01 00:22:37;;;;;;;2.38;1.80;;;26.10;56.70;;;;;;5012533;28;20022;-57
2022/08/01 00:25:05;;;;;;;2.25;1.83;;;26.10;56.70;;;;;;5012637;28;20034;-54
2022/08/01 00:27:32;;;;;;;2.78;1.80;;;26.10;56.70;;;;;;5013106;28;20034;-56
2022/08/01 00:29:58;;;;;;;2.03;1.70;;;26.10;56.70;;;;;;5013861;28;20493;-56
2022/08/01 00:32:24;;;;;;;2.85;1.90;;;26.10;56.70;;;;;;5013827;28;20030;-55
2022/08/01 00:34:50;;;;;;;2.90;2.25;;;26.10;56.70;;;;;;5012692;28;20482;-57
2022/08/01 00:37:15;;;;;;;2.00;1.80;;;26.00;56.60;;;;;;5012700;28;20030;-56
2022/08/01 00:39:41;;;;;;;5.03;2.00;;;26.00;56.60;;;;;;5013278;28;20373;-59
2022/08/01 00:42:11;;;;;;;2.70;2.33;;;26.00;56.60;;;;;;5012546;28;20049;-58
2022/08/01 00:44:38;;;;;;;2.20;2.00;;;26.10;56.70;;;;;;5012028;28;20034;-57
2022/08/01 00:47:05;;;;;;;2.72;1.70;;;26.00;56.60;;;;;;5014940;28;20156;-54
2022/08/01 00:49:31;;;;;;;3.00;2.00;;;26.00;56.60;;;;;;5013281;28;20060;-55
2022/08/01 00:51:58;;;;;;;2.33;2.10;;;26.00;56.50;;;;;;5011969;28;20026;-56
2022/08/01 00:54:25;;;;;;;2.08;1.85;;;26.00;56.50;;;;;;5013049;28;20090;-53
2022/08/01 00:56:52;;;;;;;2.35;2.10;;;26.00;56.50;;;;;;5011467;28;20062;-58
2022/08/01 00:59:20;;;;;;;2.53;2.08;;;26.00;56.50;;;;;;5012704;28;20424;-55
2022/08/01 01:01:46;;;;;;;1.90;1.63;;;26.00;56.50;;;;;;5013300;28;20030;-53
2022/08/01 01:04:12;;;;;;;2.63;1.95;;;26.00;56.50;;;;;;5012298;28;20038;-54
2022/08/01 01:07:23;;;;;;;2.30;2.10;;;26.00;56.50;;;;;;5009787;28;20045;-56
2022/08/01 01:10:11;;;;;;;2.67;2.03;;;26.00;56.50;;;;;;5008598;28;20445;-56
2022/08/01 01:12:55;;;;;;;4.70;2.17;;;26.00;56.50;;;;;;5012360;28;20038;-58
2022/08/01 01:15:36;;;;;;;2.42;2.15;;;26.00;56.50;;;;;;5013155;28;20068;-56
2022/08/01 01:18:20;;;;;;;2.80;1.90;;;26.00;57.10;;;;;;5014335;28;20413;-57
2022/08/01 01:20:54;;;;;;;2.88;2.42;;;25.90;56.40;;;;;;5011627;28;20075;-54
2022/08/01 01:23:34;;;;;;;4.03;2.38;;;25.90;56.40;;;;;;5013208;28;20110;-57
2022/08/01 01:26:14;;;;;;;3.35;2.42;;;25.90;56.50;;;;;;5009937;28;20045;-53
2022/08/01 01:29:19;;;;;;;2.30;2.03;;;25.90;56.40;;;;;;5010329;28;20126;-55
2022/08/01 01:32:09;;;;;;;3.80;2.72;;;25.90;56.40;;;;;;5011957;28;20084;-55
2022/08/01 01:34:39;;;;;;;2.80;2.30;;;25.90;56.40;;;;;;5011161;28;20034;-55
2022/08/01 01:37:10;;;;;;;2.53;2.33;;;25.90;56.40;;;;;;5010753;28;20033;-52
2022/08/01 01:39:38;;;;;;;2.60;2.33;;;25.90;56.40;;;;;;5012245;28;20072;-52
2022/08/01 01:42:06;;;;;;;3.00;2.35;;;25.90;56.40;;;;;;5011962;28;20177;-55
2022/08/01 01:44:33;;;;;;;2.80;2.13;;;25.90;56.40;;;;;;5010860;28;20408;-56
2022/08/01 01:47:00;;;;;;;2.60;2.40;;;25.90;56.40;;;;;;5013828;28;20069;-53
2022/08/01 01:49:28;;;;;;;3.22;2.30;;;25.90;56.40;;;;;;5010941;28;20036;-56
2022/08/01 01:51:57;;;;;;;2.65;2.42;;;25.80;56.30;;;;;;5009654;28;20037;-54
2022/08/01 01:54:27;;;;;;;2.50;2.30;;;25.80;56.90;;;;;;5011553;28;20754;-52
2022/08/01 01:56:58;;;;;;;2.60;2.10;;;25.80;56.30;;;;;;5008917;28;20038;-57
2022/08/01 01:59:27;;;;;;;4.28;2.58;;;25.80;56.30;;;;;;5011806;28;20065;-56
2022/08/01 02:01:57;;;;;;;2.90;2.60;;;25.80;56.30;;;;;;5011066;28;20065;-57
2022/08/01 02:04:26;;;;;;;2.88;2.10;;;25.80;56.30;;;;;;5007165;28;20073;-54
2022/08/01 02:06:54;;;;;;;2.63;2.42;;;25.80;56.30;;;;;;5012092;28;20095;-51
2022/08/01 02:09:21;;;;;;;2.97;2.42;;;25.80;56.30;;;;;;5011570;28;20022;-57
2022/08/01 02:11:49;;;;;;;2.78;2.50;;;25.80;56.40;;;;;;5012426;28;20038;-58
2022/08/01 02:14:18;;;;;;;3.22;2.50;;;25.80;56.40;;;;;;5011466;28;20117;-54
2022/08/01 02:16:47;;;;;;;4.43;2.58;;;25.80;56.30;;;;;;5011854;28;20049;-56
2022/08/01 02:19:14;;;;;;;3.25;2.35;;;25.80;56.40;;;;;;5010997;28;20480;-53
2022/08/01 02:21:54;;;;;;;2.78;1.95;;;25.80;56.40;;;;;;5011495;28;20081;-55
2022/08/01 02:24:41;;;;;;;3.08;2.35;;;25.80;56.40;;;;;;5010288;28;20034;-52
2022/08/01 02:27:15;;;;;;;2.55;2.17;;;25.80;56.40;;;;;;5009049;28;20050;-56
2022/08/01 02:29:49;;;;;;;2.72;2.20;;;25.80;56.40;;;;;;5011056;28;20034;-57
2022/08/01 02:32:24;;;;;;;2.38;2.17;;;25.70;56.40;;;;;;5011014;28;20022;-52
2022/08/01 02:34:53;;;;;;;3.58;2.22;;;25.70;56.40;;;;;;5010780;28;20038;-56
2022/08/01 02:37:20;;;;;;;3.20;2.50;;;25.70;56.40;;;;;;5008463;28;20105;-54
2022/08/01 02:39:52;;;;;;;2.75;2.30;;;25.70;56.40;;;;;;5011036;28;20034;-55
2022/08/01 02:42:20;;;;;;;3.00;2.42;;;25.70;56.50;;;;;;5010770;28;20026;-55
2022/08/01 02:44:48;;;;;;;3.47;2.40;;;25.70;56.50;;;;;;5013059;28;20109;-51
2022/08/01 02:47:18;;;;;;;3.78;2.30;;;25.70;56.50;;;;;;5009198;28;20373;-54
2022/08/01 02:49:46;;;;;;;2.42;2.20;;;25.70;56.50;;;;;;5010450;28;20040;-56
2022/08/01 02:52:16;;;;;;;2.88;2.42;;;25.70;56.50;;;;;;5010580;28;20036;-57
2022/08/01 02:54:45;;;;;;;2.30;2.10;;;25.70;56.60;;;;;;5010457;28;20672;-54
2022/08/01 02:57:13;;;;;;;4.30;2.42;;;25.70;56.60;;;;;;5007733;28;20076;-53
2022/08/01 02:59:40;;;;;;;2.63;1.90;;;25.70;56.60;;;;;;5010065;28;20057;-54
2022/08/01 03:02:09;;;;;;;2.50;2.20;;;25.70;56.70;;;;;;5007642;28;20069;-56
2022/08/01 03:04:37;;;;;;;3.20;2.10;;;25.70;56.70;;;;;;5010161;28;20037;-56
2022/08/01 03:07:04;;;;;;;1.90;1.65;;;25.70;56.80;;;;;;5010671;28;20073;-49
2022/08/01 03:09:34;;;;;;;2.50;1.70;;;25.70;56.80;;;;;;5008503;28;20503;-56
2022/08/01 03:12:02;;;;;;;2.63;1.77;;;25.70;56.80;;;;;;5008275;28;20075;-56
2022/08/01 03:14:29;;;;;;;2.35;1.95;;;25.70;56.80;;;;;;5009918;28;20030;-55
2022/08/01 03:16:57;;;;;;;1.90;1.60;;;25.70;56.80;;;;;;5010048;28;20033;-58
2022/08/01 03:19:25;;;;;;;2.03;1.73;;;25.60;56.80;;;;;;5009700;28;20104;-57
2022/08/01 03:21:53;;;;;;;1.98;1.77;;;25.60;56.80;;;;;;5011000;28;20029;-51
2022/08/01 03:24:21;;;;;;;1.83;1.58;;;25.60;56.90;;;;;;5010630;28;20416;-55
2022/08/01 03:26:48;;;;;;;1.77;1.63;;;25.60;56.90;;;;;;5009549;28;20100;-53
2022/08/01 03:29:20;;;;;;;1.70;1.42;;;25.60;56.90;;;;;;5010269;28;20034;-53
2022/08/01 03:31:47;;;;;;;1.60;1.33;;;25.60;56.90;;;;;;5010362;28;20420;-54
2022/08/01 03:34:13;;;;;;;1.52;1.42;;;25.60;56.90;;;;;;5007607;28;20037;-55
2022/08/01 03:36:52;;;;;;;1.63;1.40;;;25.60;56.90;;;;;;5009644;28;20030;-53
2022/08/01 03:39:20;;;;;;;1.63;1.20;;;25.60;56.90;;;;;;5010565;28;20069;-55
2022/08/01 03:41:59;;;;;;;2.28;1.48;;;25.60;56.90;;;;;;5007820;28;20053;-54
2022/08/01 03:44:29;;;;;;;1.70;1.45;;;25.60;56.90;;;;;;5010125;28;20104;-56
2022/08/01 03:47:04;;;;;;;1.17;1.08;;;25.60;56.90;;;;;;5009876;28;20112;-55
2022/08/01 03:49:30;;;;;;;;;;;25.60;56.90;;;;;;5009257;28;20045;-58
2022/08/01 03:51:58;;;;;;;1.10;1.00;;;25.60;56.90;;;;;;5010630;28;19917;-58
2022/08/01 03:54:28;;;;;;;1.00;0.90;;;25.60;56.90;;;;;;5006715;28;20405;-55
2022/08/01 03:56:54;;;;;;;1.00;0.90;;;25.60;57.60;;;;;;5007364;28;20129;-54
2022/08/01 03:59:21;;;;;;;0.70;0.70;;;25.60;57.00;;;;;;5009629;28;20095;-53
2022/08/01 04:01:48;;;;;;;0.90;0.80;;;25.60;57.00;;;;;;5007515;28;20026;-56
2022/08/01 04:04:14;;;;;;;1.00;0.90;;;25.60;57.00;;;;;;5009560;28;20052;-54
2022/08/01 04:06:41;;;;;;;0.88;0.80;;;25.60;57.00;;;;;;5009591;28;20038;-57
2022/08/01 04:09:07;;;;;;;0.98;0.88;;;25.50;57.00;;;;;;5010419;28;20040;-58
2022/08/01 04:11:33;;;;;;;1.10;1.00;;;25.50;57.00;;;;;;5010854;28;20456;-51
2022/08/01 04:13:59;;;;;;;0.75;0.75;;;25.50;57.00;;;;;;5005683;28;20057;-56
2022/08/01 04:16:25;;;;;;;1.02;0.80;;;25.50;57.00;;;;;;5009181;28;20029;-55
2022/08/01 04:18:51;;;;;;;0.98;0.80;;;25.50;57.00;;;;;;5009662;28;20026;-52
2022/08/01 04:21:29;;;;;;;0.80;0.77;;;25.50;57.00;;;;;;5009679;28;20099;-55
2022/08/01 04:23:59;;;;;;;0.73;0.73;;;25.50;57.00;;;;;;5009950;28;20037;-57
2022/08/01 04:26:28;;;;;;;0.93;0.85;;;25.50;57.00;;;;;;5007815;28;20048;-55
2022/08/01 04:28:55;;;;;;;2.20;0.82;;;25.50;57.00;;;;;;5011910;28;20026;-49
2022/08/01 04:31:25;;;;;;;0.93;0.85;;;25.50;57.00;;;;;;5012740;28;20504;-56
2022/08/01 04:33:54;;;;;;;1.10;0.90;;;25.50;57.00;;;;;;5011843;28;20044;-55
2022/08/01 04:36:23;;;;;;;1.20;0.95;;;25.50;57.00;;;;;;5013774;28;20025;-54
2022/08/01 04:38:54;;;;;;;1.00;0.70;;;25.50;57.00;;;;;;5013644;28;20026;-58
2022/08/01 04:41:22;;;;;;;0.93;0.82;;;25.50;57.00;;;;;;5012592;28;20092;-58
2022/08/01 04:43:48;;;;;;;0.80;0.80;;;25.50;57.60;;;;;;5014134;28;20037;-55
2022/08/01 04:46:15;;;;;;;0.98;0.80;;;25.50;57.00;;;;;;5022089;28;20042;-54
2022/08/01 04:48:42;;;;;;;1.10;0.90;;;25.50;57.00;;;;;;5012138;28;20037;-55
2022/08/01 04:51:15;;;;;;;1.08;0.98;;;25.50;57.10;;;;;;5013252;28;20026;-52
2022/08/01 04:53:42;;;;;;;1.02;0.80;;;25.50;57.10;;;;;;5013221;28;20026;-52
2022/08/01 04:56:08;;;;;;;1.27;1.02;;;25.50;57.10;;;;;;5012653;28;20049;-54
2022/08/01 04:58:34;;;;;;;1.10;0.95;;;25.50;57.10;;;;;;5013666;28;20092;-55
2022/08/01 05:01:00;;;;;;;0.90;0.80;;;25.50;57.10;;;;;;5011039;28;20030;-56
2022/08/01 05:03:26;;;;;;;1.00;0.80;;;25.50;57.10;;;;;;5013835;28;20032;-52
2022/08/01 05:05:51;;;;;;;1.83;0.95;;;25.40;57.10;;;;;;5013456;28;20030;-53
2022/08/01 05:08:17;;;;;;;1.27;0.80;;;25.50;57.20;;;;;;5013186;28;20449;-52
2022/08/01 05:10:43;;;;;;;1.00;0.80;;;25.50;57.20;;;;;;5014730;28;20052;-54
2022/08/01 05:13:09;;;;;;;1.77;1.20;;;25.50;57.20;;;;;;5014420;28;20349;-57
2022/08/01 05:15:38;;;;;;;1.60;0.93;;;25.50;57.20;;;;;;5012311;28;20036;-56
2022/08/01 05:18:04;;;;;;;0.60;0.60;;;25.50;57.20;;;;;;5012034;28;20029;-54
2022/08/01 05:20:30;;;;;;;1.00;0.88;;;25.50;57.20;;;;;;5011912;28;20041;-50
2022/08/01 05:22:57;;;;;;;1.13;1.00;;;25.40;57.20;;;;;;5011418;28;20033;-54
2022/08/01 05:25:23;;;;;;;0.85;0.68;;;25.40;57.20;;;;;;5012383;28;20038;-57
2022/08/01 05:27:49;;;;;;;0.60;0.60;;;25.40;57.20;;;;;;5012305;28;20038;-51
2022/08/01 05:30:15;;;;;;;1.30;1.05;;;25.40;57.20;;;;;;5011060;28;20048;-58
2022/08/01 05:32:41;;;;;;;1.17;0.90;;;25.40;57.20;;;;;;5012186;28;20034;-53
2022/08/01 05:35:08;;;;;;;1.42;0.88;;;25.40;57.20;;;;;;5012195;28;20022;-54
2022/08/01 05:37:34;;;;;;;0.80;0.80;;;25.40;57.20;;;;;;5010406;28;20041;-57
2022/08/01 05:40:00;;;;;;;1.58;1.10;;;25.40;57.20;;;;;;5010151;28;20065;-58
2022/08/01 05:42:26;;;;;;;1.20;1.00;;;25.50;57.30;;;;;;5010827;28;20441;-57
2022/08/01 05:44:52;;;;;;;1.20;1.08;;;25.50;57.30;;;;;;5011001;28;20033;-55
2022/08/01 05:47:18;;;;;;;1.05;0.95;;;25.40;57.30;;;;;;5013441;28;20034;-57
2022/08/01 05:49:44;;;;;;;1.65;1.25;;;25.40;57.30;;;;;;5012351;28;20388;-55
2022/08/01 05:52:10;;;;;;;1.10;0.90;;;25.40;57.30;;;;;;5010693;28;20109;-53
2022/08/01 05:54:36;;;;;;;1.33;1.00;;;25.40;57.30;;;;;;5011706;28;20568;-55
2022/08/01 05:57:02;;;;;;;1.30;1.00;;;25.40;57.30;;;;;;5004882;28;20693;-58
2022/08/01 05:59:29;;;;;;;1.25;0.90;;;25.40;57.30;;;;;;5011466;28;20036;-57
2022/08/01 06:01:55;;;;;;;1.23;1.10;;;25.40;57.30;;;;;;5011271;28;20034;-54
2022/08/01 06:04:21;;;;;;;0.82;0.82;;;25.40;57.30;;;;;;5011411;28;20032;-54
2022/08/01 06:06:47;;;;;;;0.70;0.70;;;25.40;57.30;;;;;;5012869;28;20481;-55
2022/08/01 06:09:12;;;;;;;1.10;1.00;;;25.40;57.30;;;;;;5012253;28;20352;-54
2022/08/01 06:11:38;;;;;;;0.80;0.70;;;25.40;57.30;;;;;;5010208;28;20115;-58
2022/08/01 06:14:04;;;;;;;0.80;0.70;;;25.40;57.30;;;;;;5009777;28;20037;-57
2022/08/01 06:16:30;;;;;;;2.85;0.88;;;25.40;57.30;;;;;;5011812;28;20377;-55
2022/08/01 06:18:56;;;;;;;3.20;0.60;;;25.40;57.30;;;;;;5010548;28;20033;-56
2022/08/01 06:21:22;;;;;;;0.70;0.70;;;25.40;57.30;;;;;;5012303;28;20629;-52
2022/08/01 06:23:47;;;;;;;1.40;0.73;;;25.40;57.30;;;;;;5007793;28;20033;-54
2022/08/01 06:26:13;;;;;;;1.08;0.70;;;25.40;57.20;;;;;;5011704;28;20033;-54
2022/08/01 06:28:39;;;;;;;0.60;0.60;;;25.40;57.20;;;;;;5014630;28;20109;-57
2022/08/01 06:31:05;;;;;;;1.02;0.70;;;25.40;57.20;;;;;;5014513;28;20084;-53
2022/08/01 06:33:31;;;;;;;1.58;0.77;;;25.40;57.10;;;;;;5004932;28;20065;-55
2022/08/01 06:35:57;;;;;;;1.40;0.80;;;25.40;57.10;;;;;;5011876;28;20487;-52
2022/08/01 06:38:24;;;;;;;1.25;0.70;;;25.40;57.00;;;;;;5011183;28;20048;-53
2022/08/01 06:40:50;;;;;;;1.15;0.60;;;25.40;57.00;;;;;;5010381;28;20037;-52
2022/08/01 06:43:16;;;;;;;1.08;0.70;;;25.40;57.00;;;;;;5011313;28;20096;-52
2022/08/01 06:45:42;;;;;;;2.00;0.80;;;25.40;57.00;;;;;;5009243;28;20030;-53
2022/08/01 06:48:08;;;;;;;3.53;0.80;;;25.50;57.00;;;;;;5011079;28;20033;-53
2022/08/01 06:50:35;;;;;;;2.53;0.90;;;25.50;57.00;;;;;;5011871;28;20092;-55
2022/08/01 06:53:01;;;;;;;1.45;0.80;;;25.50;57.00;;;;;;5010885;28;20026;-55
2022/08/01 06:55:27;;;;;;;1.48;0.75;;;25.50;56.90;;;;;;5007884;28;20077;-52
2022/08/01 06:57:53;;;;;;;1.27;0.75;;;25.50;56.90;;;;;;5010826;28;20033;-52
2022/08/01 07:00:22;;;;;;;2.35;0.60;;;25.50;56.90;;;;;;5008883;28;20061;-57
2022/08/01 07:02:49;;;;;;;1.35;0.57;;;25.50;56.90;;;;;;5010875;28;20030;-54
2022/08/01 07:05:15;;;;;;;1.60;0.70;;;25.50;56.90;;;;;;5011147;28;20030;-54
2022/08/01 07:07:41;;;;;;;1.75;1.17;;;25.50;56.90;;;;;;5012756;28;20092;-51
2022/08/01 07:10:08;;;;;;;1.52;0.70;;;25.50;56.90;;;;;;5011323;28;20038;-54
2022/08/01 07:12:36;;;;;;;1.10;0.70;;;25.50;56.90;;;;;;5010145;28;20030;-56
2022/08/01 07:15:07;;;;;;;2.55;0.80;;;25.50;56.90;;;;;;5009514;28;20030;-55
2022/08/01 07:17:36;;;;;;;1.65;0.90;;;25.50;56.90;;;;;;5013344;28;20038;-53
2022/08/01 07:20:03;;;;;;;1.95;0.90;;;25.50;56.90;;;;;;5013400;28;20025;-52
2022/08/01 07:22:29;;;;;;;1.60;1.20;;;25.50;56.90;;;;;;5010581;28;20429;-56
2022/08/01 07:24:54;;;;;;;2.17;1.10;;;25.50;56.80;;;;;;5014921;28;20040;-52
2022/08/01 07:27:20;;;;;;;2.72;0.90;;;25.50;56.80;;;;;;5015126;28;20095;-55
2022/08/01 07:29:46;;;;;;;1.77;1.10;;;25.60;56.90;;;;;;5009845;28;20073;-56
2022/08/01 07:32:12;;;;;;;1.20;0.82;;;25.50;56.80;;;;;;5009677;28;20033;-54
2022/08/01 07:34:38;;;;;;;1.25;0.73;;;25.50;56.70;;;;;;5011476;28;20037;-54
2022/08/01 07:37:03;;;;;;;2.00;0.98;;;25.50;56.70;;;;;;5009577;28;20048;-56
2022/08/01 07:39:29;;;;;;;1.65;0.82;;;25.50;56.70;;;;;;5009404;28;20091;-53
2022/08/01 07:41:55;;;;;;;1.85;1.00;;;25.50;56.70;;;;;;5010516;28;20029;-56
2022/08/01 07:44:21;;;;;;;1.48;0.75;;;25.50;56.70;;;;;;5011129;28;20033;-52
2022/08/01 07:46:46;;;;;;;0.95;0.82;;;25.50;56.70;;;;;;5000376;28;20461;-49
2022/08/01 07:49:13;;;;;;;1.15;0.70;;;25.60;56.70;;;;;;5010114;28;20746;-56
2022/08/01 07:51:38;;;;;;;1.33;0.80;;;25.50;56.60;;;;;;5007983;28;20048;-58
2022/08/01 07:54:04;;;;;;;0.98;0.70;;;25.60;56.80;;;;;;5010730;28;20429;-57
2022/08/01 07:56:30;;;;;;;1.85;0.98;;;25.60;56.70;;;;;;5009240;28;20077;-54
2022/08/01 07:58:56;;;;;;;2.08;0.90;;;25.50;56.60;;;;;;5010237;28;20050;-53
2022/08/01 08:01:21;;;;;;;1.23;0.82;;;25.60;56.70;;;;;;5009549;28;20196;-54
2022/08/01 08:03:47;;;;;;;0.77;0.60;;;25.60;56.70;;;;;;5015958;28;20349;-56
2022/08/01 08:06:13;;;;;;;1.27;0.80;;;25.60;56.70;;;;;;5019018;28;20433;-56
2022/08/01 08:08:39;;;;;;;1.05;0.80;;;25.60;56.60;;;;;;5017945;28;20509;-52
2022/08/01 08:11:05;;;;;;;2.65;0.68;;;25.60;56.60;;;;;;5014369;28;20030;-57
2022/08/01 08:13:30;;;;;;;1.48;0.60;;;25.60;56.50;;;;;;5015283;28;20681;-57
2022/08/01 08:15:59;;;;;;;0.60;0.52;;;25.60;56.40;;;;;;5011360;28;20081;-55
2022/08/01 08:18:26;;;;;;;1.08;0.50;;;25.60;56.30;;;;;;5017234;28;20437;-54
2022/08/01 08:20:52;;;;;;;1.13;0.65;;;25.60;56.20;;;;;;5018015;28;20025;-57
2022/08/01 08:26:03;;;;;;;;;;;25.70;56.20;;;;;;5018450;28;20042;-52
2022/08/01 08:28:28;;;;;;;1.00;0.50;;;25.70;56.10;;;;;;5018053;28;19913;-56
2022/08/01 08:30:55;;;;;;;0.70;0.50;;;25.70;56.10;;;;;;5018929;28;20026;-53
2022/08/01 08:33:20;;;;;;;0.85;0.55;;;25.70;56.10;;;;;;5016045;28;20025;-56
2022/08/01 08:35:46;;;;;;;0.63;0.40;;;25.70;56.10;;;;;;5018129;28;20033;-57
2022/08/01 08:38:12;;;;;;;0.63;0.50;;;25.70;56.10;;;;;;5015530;28;20034;-55
2022/08/01 08:40:38;;;;;;;1.52;0.73;;;25.70;56.00;;;;;;5017028;28;20334;-55
2022/08/01 08:43:05;;;;;;;0.60;0.47;;;25.70;56.00;;;;;;5017165;28;20033;-58
2022/08/01 08:45:32;;;;;;;1.83;0.40;;;25.80;56.10;;;;;;5017778;28;20103;-55
2022/08/01 08:47:58;;;;;;;0.93;0.50;;;25.70;55.90;;;;;;5017622;28;20057;-54
2022/08/01 08:50:28;;;;;;;0.60;0.50;;;25.70;55.80;;;;;;5017278;28;20037;-53
2022/08/01 08:52:56;;;;;;;0.73;0.50;;;25.80;55.80;;;;;;5015625;28;20159;-55
2022/08/01 08:55:24;;;;;;;1.05;0.50;;;25.80;55.80;;;;;;5017678;28;20050;-56
2022/08/01 08:57:52;;;;;;;0.85;0.50;;;25.80;55.80;;;;;;5017416;28;20505;-53
2022/08/01 09:00:18;;;;;;;0.63;0.40;;;25.80;55.70;;;;;;5015124;28;20041;-53
2022/08/01 09:02:46;;;;;;;0.70;0.40;;;25.80;55.70;;;;;;5016396;28;20034;-56
2022/08/01 09:05:12;;;;;;;0.60;0.43;;;25.80;55.70;;;;;;5013481;28;20334;-56
2022/08/01 09:07:39;;;;;;;1.38;0.45;;;25.80;55.70;;;;;;5017820;28;20050;-54
2022/08/01 09:10:05;;;;;;;1.15;0.68;;;25.80;55.60;;;;;;5016400;28;20113;-56
2022/08/01 09:12:31;;;;;;;0.40;0.40;;;25.80;55.60;;;;;;5017492;28;20034;-56
2022/08/01 09:14:57;;;;;;;0.95;0.50;;;25.80;55.60;;;;;;5016609;28;20038;-56
2022/08/01 09:17:23;;;;;;;0.93;0.52;;;25.80;55.50;;;;;;5015225;28;20491;-55
2022/08/01 09:19:52;;;;;;;2.75;0.52;;;25.80;55.60;;;;;;5016460;28;20049;-59
2022/08/01 09:22:22;;;;;;;0.52;0.50;;;25.80;55.70;;;;;;5017139;28;20036;-57
2022/08/01 09:25:09;;;;;;;5.35;0.82;;;25.80;55.90;;;;;;5015163;28;20046;-58
2022/08/01 09:27:39;;;;;;;1.73;0.70;;;25.80;56.10;;;;;;5017339;28;20045;-62
2022/08/01 09:30:09;;;;;;;1.15;0.60;;;25.80;56.10;;;;;;5014431;28;20042;-54
2022/08/01 09:32:35;;;;;;;2.10;0.80;;;25.80;56.20;;;;;;5013203;28;20112;-59
2022/08/01 09:35:24;;;;;;;4.20;1.52;;;25.80;56.30;;;;;;5010985;28;20164;-58
2022/08/01 09:37:50;;;;;;;28.17;4.28;;;25.80;56.30;;;;;;5008698;28;20075;-57
2022/08/01 09:40:16;;;;;;;41.85;6.57;;;25.80;56.30;;;;;;5014045;28;20026;-57
2022/08/01 09:42:42;;;;;;;54.22;8.40;;;25.90;56.40;;;;;;5013652;28;20045;-57
2022/08/01 09:45:08;;;;;;;47.30;7.10;;;25.80;56.40;;;;;;5019948;28;20111;-55
2022/08/01 09:47:38;;;;;;;25.60;4.80;;;25.90;56.50;;;;;;5012994;28;20060;-56
2022/08/01 09:50:05;;;;;;;16.25;3.20;;;25.90;56.40;;;;;;5012502;28;20372;-59
2022/08/01 09:52:31;;;;;;;10.75;2.42;;;25.90;56.40;;;;;;5015909;28;20033;-53
2022/08/01 09:55:00;;;;;;;9.15;2.38;;;25.90;56.50;;;;;;5013132;28;20038;-56
2022/08/01 09:57:27;;;;;;;9.23;1.75;;;25.90;56.40;;;;;;5013267;28;20038;-55
2022/08/01 09:59:56;;;;;;;4.88;1.60;;;25.90;56.30;;;;;;5014820;28;20365;-56
2022/08/01 10:02:28;;;;;;;5.40;1.60;;;26.00;56.30;;;;;;5013261;28;20041;-58
2022/08/01 10:04:54;;;;;;;11.48;1.65;;;26.00;56.20;;;;;;5014437;28;20034;-59
2022/08/01 10:07:21;;;;;;;3.53;1.10;;;26.00;56.10;;;;;;5012803;28;20188;-58
2022/08/01 10:09:48;;;;;;;6.35;1.17;;;26.00;56.10;;;;;;5013639;28;20038;-59
2022/08/01 10:12:16;;;;;;;3.35;1.33;;;26.00;56.10;;;;;;5011113;28;20105;-56
2022/08/01 10:14:55;;;;;;;6.22;1.75;;;26.00;56.10;;;;;;5012542;28;20169;-56
2022/08/01 10:17:24;;;;;;;4.90;1.60;;;26.00;56.20;;;;;;5008509;28;20053;-55
2022/08/01 10:19:54;;;;;;;4.05;1.70;;;26.00;56.20;;;;;;5010295;28;20030;-55
2022/08/01 10:22:23;;;;;;;3.90;1.73;;;26.00;56.20;;;;;;5008649;28;20401;-60
2022/08/01 10:24:54;;;;;;;9.38;1.50;;;26.00;56.20;;;;;;5016155;28;20824;-58
2022/08/01 10:27:22;;;;;;;5.85;1.80;;;26.00;56.20;;;;;;5013954;28;20038;-61
2022/08/01 10:29:57;;;;;;;10.20;1.60;;;26.00;56.20;;;;;;5020656;28;20030;-59
2022/08/01 10:32:23;;;;;;;14.70;1.52;;;26.00;56.20;;;;;;5015765;28;20065;-60
2022/08/01 10:34:51;;;;;;;4.85;1.23;;;26.10;56.20;;;;;;5013352;28;20021;-60
2022/08/01 10:37:17;;;;;;;4.55;1.45;;;26.10;56.00;;;;;;5018431;28;20527;-61
2022/08/01 10:39:43;;;;;;;3.47;1.42;;;26.20;55.90;;;;;;5012820;28;20124;-58
2022/08/01 10:42:11;;;;;;;3.80;1.23;;;26.30;55.80;;;;;;5016467;28;20456;-58
2022/08/01 10:44:38;;;;;;;3.47;1.23;;;26.40;55.60;;;;;;5011487;28;20030;-61
2022/08/01 10:47:12;;;;;;;4.63;1.27;;;26.50;55.40;;;;;;5008580;28;20052;-59
2022/08/01 10:49:50;;;;;;;3.28;1.20;;;26.60;55.30;;;;;;5011034;28;20025;-61
2022/08/01 10:52:20;;;;;;;7.40;1.83;;;26.70;55.10;;;;;;5008006;28;20029;-59
2022/08/01 10:54:47;;;;;;;2.65;1.00;;;26.80;54.90;;;;;;5016276;28;20053;-56
2022/08/01 10:57:14;;;;;;;4.70;1.35;;;26.80;54.70;;;;;;5014956;28;20045;-57
2022/08/01 10:59:51;;;;;;;4.40;1.27;;;26.90;54.60;;;;;;5015592;28;20349;-57
2022/08/01 11:02:30;;;;;;;1.52;0.93;;;27.00;54.40;;;;;;5014454;28;20341;-54
2022/08/01 11:05:11;;;;;;;2.97;1.05;;;27.10;54.30;;;;;;5008694;28;20041;-58
2022/08/01 11:07:51;;;;;;;3.67;1.20;;;27.10;54.10;;;;;;5012023;28;20132;-61
2022/08/01 11:10:39;;;;;;;5.45;1.10;;;27.20;54.10;;;;;;5018339;28;20343;-62
2022/08/01 11:13:11;;;;;;;3.20;1.10;;;27.10;53.90;;;;;;5011760;28;20033;-62
2022/08/01 11:15:41;;;;;;;3.72;1.40;;;27.20;53.90;;;;;;5010607;28;20042;-63
2022/08/01 11:18:25;;;;;;;4.82;1.13;;;27.20;53.80;;;;;;5008352;28;20033;-60
2022/08/01 11:21:01;;;;;;;3.97;1.30;;;27.20;53.70;;;;;;5015896;28;20021;-59
2022/08/01 11:23:31;;;;;;;4.75;1.25;;;27.20;53.60;;;;;;5010707;28;20029;-61
2022/08/01 11:26:02;;;;;;;5.05;1.30;;;27.30;53.60;;;;;;5009633;28;20034;-58
2022/08/01 11:28:31;;;;;;;8.52;1.42;;;27.30;53.40;;;;;;5013676;28;20148;-58
2022/08/01 11:31:16;;;;;;;7.50;1.20;;;27.30;53.40;;;;;;5030898;28;20041;-60
2022/08/01 11:33:42;;;;;;;3.92;1.23;;;27.30;53.30;;;;;;5008736;28;20033;-62
2022/08/01 11:36:20;;;;;;;4.13;1.10;;;27.40;53.30;;;;;;5001350;28;20060;-61
2022/08/01 11:39:12;;;;;;;2.97;1.20;;;27.40;53.30;;;;;;5008548;28;20472;-58
2022/08/01 11:41:39;;;;;;;4.38;1.23;;;27.50;53.10;;;;;;5012979;28;20048;-61
2022/08/01 11:44:20;;;;;;;3.13;1.00;;;27.50;52.80;;;;;;5011999;28;20018;-62
2022/08/01 11:46:45;;;;;;;9.77;1.38;;;27.50;52.60;;;;;;5008043;28;20045;-58
2022/08/01 11:49:32;;;;;;;7.28;1.45;;;27.60;52.60;;;;;;5010068;28;20022;-60
2022/08/01 11:52:00;;;;;;;10.50;1.50;;;27.60;52.30;;;;;;5010646;28;20037;-62
2022/08/01 11:54:29;;;;;;;9.07;1.42;;;27.60;52.30;;;;;;5014705;28;20041;-60
2022/08/01 11:57:09;;;;;;;4.28;1.20;;;27.60;52.20;;;;;;5013368;28;20141;-59
2022/08/01 11:59:48;;;;;;;3.40;1.10;;;27.70;52.10;;;;;;5006462;28;20365;-61
2022/08/01 12:02:25;;;;;;;3.88;1.65;;;27.70;51.90;;;;;;5009853;28;20033;-59
2022/08/01 12:04:54;;;;;;;4.65;1.35;;;27.70;51.80;;;;;;5013470;28;20026;-63
2022/08/01 12:07:21;;;;;;;3.92;1.25;;;27.70;51.80;;;;;;5011469;28;20037;-61
2022/08/01 12:09:48;;;;;;;9.25;1.35;;;27.70;51.70;;;;;;5009792;28;20440;-64
2022/08/01 12:12:18;;;;;;;4.10;1.35;;;27.70;51.50;;;;;;5011496;28;20778;-61
2022/08/01 12:14:46;;;;;;;3.45;1.20;;;27.80;51.60;;;;;;5008220;28;20054;-57
2022/08/01 12:17:12;;;;;;;3.78;1.23;;;27.90;51.50;;;;;;5003243;28;20060;-54
2022/08/01 12:19:40;;;;;;;5.03;1.20;;;27.90;51.30;;;;;;5009101;28;20075;-59
2022/08/01 12:22:13;;;;;;;2.88;1.00;;;28.00;51.10;;;;;;5007858;28;20468;-60
2022/08/01 12:24:42;;;;;;;3.08;1.17;;;28.00;50.90;;;;;;5009738;28;20026;-58
2022/08/01 12:27:09;;;;;;;2.40;1.05;;;28.00;50.70;;;;;;5009931;28;20092;-61
2022/08/01 12:29:41;;;;;;;5.03;1.10;;;28.10;50.60;;;;;;5006427;28;20087;-56
2022/08/01 12:32:30;;;;;;;2.63;1.00;;;28.10;50.50;;;;;;5010127;28;20088;-58
2022/08/01 12:35:10;;;;;;;3.78;1.08;;;28.00;50.40;;;;;;5002153;28;20103;-58
2022/08/01 12:37:41;;;;;;;2.55;0.80;;;28.00;50.20;;;;;;5009459;28;20026;-61
2022/08/01 12:40:25;;;;;;;2.05;1.00;;;28.00;50.20;;;;;;5005262;28;20117;-59
2022/08/01 12:42:54;;;;;;;2.20;1.00;;;28.00;50.00;;;;;;5008066;28;20049;-57
2022/08/01 12:45:25;;;;;;;3.42;0.90;;;28.00;50.00;;;;;;5006841;28;20040;-60
2022/08/01 12:47:52;;;;;;;3.05;1.00;;;28.00;49.80;;;;;;5009451;28;20451;-60
2022/08/01 12:50:21;;;;;;;2.80;1.00;;;28.00;49.70;;;;;;5009100;28;20105;-58
2022/08/01 12:52:50;;;;;;;3.63;1.08;;;28.00;49.50;;;;;;5011487;28;20044;-58
2022/08/01 12:55:24;;;;;;;3.72;1.00;;;27.90;49.30;;;;;;5008738;28;20118;-60
2022/08/01 12:58:07;;;;;;;4.40;1.20;;;27.90;49.20;;;;;;5012012;28;20038;-58
2022/08/01 13:00:34;;;;;;;1.85;0.93;;;27.90;49.20;;;;;;5011938;28;20041;-58